createdAt,value
2018-12-11T00:00:48.552Z,20.1
2018-12-11T00:01:39.117Z,20.1
2018-12-11T00:02:28.079Z,20.1
2018-12-11T00:03:19.546Z,20.1
2018-12-11T00:04:09.312Z,20.1
2018-12-11T00:04:59.344Z,20.1
2018-12-11T00:05:49.127Z,20.1
2018-12-11T00:06:39.462Z,20.1
2018-12-11T00:24:54.564Z,20
2018-12-11T00:25:44.670Z,20
2018-12-11T00:26:34.121Z,19.9
2018-12-11T00:27:39.287Z,20
2018-12-11T00:28:20.190Z,20
2018-12-11T00:29:10.237Z,19.9
2018-12-11T00:30:01.762Z,19.9
2018-12-11T00:30:50.800Z,19.9
2018-12-11T00:31:55.362Z,19.9
2018-12-11T04:54:08.918Z,19.4
2018-12-11T04:54:57.470Z,19.4
2018-12-11T04:55:47.270Z,19.4
2018-12-11T04:56:37.271Z,19.4
2018-12-11T04:57:27.052Z,19.4
2018-12-11T04:58:17.115Z,19.4
2018-12-11T04:59:07.415Z,19.4
2018-12-11T04:59:57.512Z,19.4
2018-12-11T05:00:47.517Z,19.4
2018-12-11T05:01:37.614Z,19.4
2018-12-11T05:02:27.385Z,19.4
2018-12-11T05:03:17.435Z,19.4
2018-12-11T05:04:07.570Z,19.4
2018-12-11T05:04:57.559Z,19.4
2018-12-11T05:05:47.340Z,19.4
2018-12-11T05:06:37.707Z,19.4
2018-12-11T05:07:27.517Z,19.4
2018-12-11T05:08:17.837Z,19.4
2018-12-11T05:09:07.523Z,19.4
2018-12-11T05:09:58.134Z,19.5
2018-12-11T05:10:47.962Z,19.6
2018-12-11T05:11:38.264Z,19.6
2018-12-11T05:12:28.059Z,19.6
2018-12-11T05:13:17.859Z,19.6
2018-12-11T05:14:07.954Z,19.6
2018-12-11T05:14:57.551Z,19.6
2018-12-11T05:15:48.299Z,19.6
2018-12-11T05:16:38.404Z,19.6
2018-12-11T05:17:27.370Z,19.6
2018-12-11T05:18:18.264Z,19.6
2018-12-11T05:19:08.046Z,19.5
2018-12-11T05:19:58.103Z,19.6
2018-12-11T05:20:48.443Z,19.6
2018-12-11T05:21:38.967Z,19.6
2018-12-11T05:22:28.269Z,19.6
2018-12-11T05:23:18.614Z,19.6
2018-12-11T05:24:08.396Z,19.6
2018-12-11T05:24:58.765Z,19.7
2018-12-11T05:25:48.476Z,19.7
2018-12-11T05:26:38.910Z,19.8
2018-12-11T05:27:28.626Z,19.8
2018-12-11T05:28:18.670Z,19.8
2018-12-11T05:29:09.553Z,19.9
2018-12-11T05:29:58.788Z,19.9
2018-12-11T05:30:50.637Z,19.9
2018-12-11T05:31:39.106Z,19.9
2018-12-11T05:32:28.963Z,19.9
2018-12-11T05:33:19.277Z,19.9
2018-12-11T05:34:10.576Z,19.9
2018-12-11T05:34:58.580Z,19.9
2018-12-11T05:35:48.913Z,19.9
2018-12-11T05:36:39.779Z,19.8
2018-12-11T05:37:30.050Z,19.9
2018-12-11T05:38:19.842Z,19.8
2018-12-11T05:39:09.890Z,19.8
2018-12-11T05:39:59.670Z,19.8
2018-12-11T05:40:50.013Z,19.8
2018-12-11T05:41:40.605Z,19.8
2018-12-11T05:42:29.632Z,19.8
2018-12-11T05:43:19.912Z,19.8
2018-12-11T05:44:10.517Z,19.8
2018-12-11T05:45:01.125Z,19.8
2018-12-11T05:45:50.345Z,19.8
2018-12-11T05:46:40.455Z,19.8
2018-12-11T05:47:30.987Z,19.8
2018-12-11T05:48:20.817Z,19.8
2018-12-11T05:49:10.845Z,19.7
2018-12-11T05:50:00.949Z,19.7
2018-12-11T05:50:50.684Z,19.7
2018-12-11T05:51:40.799Z,19.7
2018-12-11T05:52:31.086Z,19.7
2018-12-11T05:53:21.154Z,19.7
2018-12-11T05:54:11.196Z,19.7
2018-12-11T05:55:00.542Z,19.7
2018-12-11T05:55:51.029Z,19.7
2018-12-11T05:56:40.833Z,19.7
2018-12-11T05:57:30.953Z,19.7
2018-12-11T05:58:21.484Z,19.7
2018-12-11T05:59:10.983Z,19.7
2018-12-11T06:00:01.318Z,19.7
2018-12-11T06:00:51.676Z,19.7
2018-12-11T06:01:41.965Z,19.7
2018-12-11T06:02:31.512Z,19.7
2018-12-11T06:03:21.823Z,19.6
2018-12-11T06:04:11.931Z,19.6
2018-12-11T06:05:01.942Z,19.7
2018-12-11T06:05:52.546Z,19.6
2018-12-11T06:06:43.019Z,19.6
2018-12-11T06:07:31.541Z,19.6
2018-12-11T06:08:21.676Z,19.6
2018-12-11T06:09:11.461Z,19.6
2018-12-11T06:10:01.803Z,19.6
2018-12-11T06:10:52.163Z,19.6
2018-12-11T06:11:41.696Z,19.6
2018-12-11T06:12:30.953Z,19.6
2018-12-11T06:13:21.545Z,19.6
2018-12-11T06:14:11.815Z,19.6
2018-12-11T06:15:02.136Z,19.6
2018-12-11T06:15:53.008Z,19.6
2018-12-11T06:16:42.257Z,19.6
2018-12-11T06:17:32.790Z,19.6
2018-12-11T06:18:22.283Z,19.6
2018-12-11T06:19:12.612Z,19.6
2018-12-11T06:20:02.687Z,19.6
2018-12-11T06:20:52.737Z,19.6
2018-12-11T06:21:43.321Z,19.6
2018-12-11T06:22:33.148Z,19.6
2018-12-11T06:23:22.931Z,19.6
2018-12-11T06:24:12.972Z,19.6
2018-12-11T06:25:04.195Z,19.6
2018-12-11T06:25:53.353Z,19.6
2018-12-11T06:26:43.656Z,19.6
2018-12-11T06:27:33.471Z,19.6
2018-12-11T06:28:23.595Z,19.6
2018-12-11T06:29:13.610Z,19.6
2018-12-11T06:30:03.731Z,19.6
2018-12-11T06:30:52.872Z,19.6
2018-12-11T06:31:43.730Z,19.6
2018-12-11T06:32:33.807Z,19.6
2018-12-11T06:33:23.898Z,19.6
2018-12-11T06:34:13.925Z,19.6
2018-12-11T06:35:03.515Z,19.6
2018-12-11T06:35:53.756Z,19.6
2018-12-11T06:36:44.338Z,19.6
2018-12-11T06:37:34.155Z,19.6
2018-12-11T06:38:23.946Z,19.6
2018-12-11T06:39:13.973Z,19.6
2018-12-11T06:40:04.100Z,19.6
2018-12-11T06:40:54.117Z,19.6
2018-12-11T06:41:44.440Z,19.6
2018-12-11T06:42:34.490Z,19.6
2018-12-11T06:43:23.714Z,19.6
2018-12-11T06:44:14.676Z,19.6
2018-12-11T06:45:04.167Z,19.6
2018-12-11T06:45:54.442Z,19.6
2018-12-11T06:46:44.508Z,19.6
2018-12-11T06:47:35.082Z,19.6
2018-12-11T06:48:24.892Z,19.6
2018-12-11T06:49:14.367Z,19.6
2018-12-11T06:50:05.007Z,19.6
2018-12-11T06:50:54.215Z,19.6
2018-12-11T06:51:45.119Z,19.6
2018-12-11T06:52:35.143Z,19.6
2018-12-11T06:53:24.951Z,19.6
2018-12-11T06:54:15.600Z,19.6
2018-12-11T06:55:05.344Z,19.6
2018-12-11T06:55:54.838Z,19.6
2018-12-11T06:56:45.524Z,19.6
2018-12-11T06:57:35.041Z,19.6
2018-12-11T06:58:25.281Z,19.6
2018-12-11T06:59:15.397Z,19.6
2018-12-11T07:00:05.695Z,19.6
2018-12-11T07:00:55.792Z,19.6
2018-12-11T07:01:45.841Z,19.6
2018-12-11T07:02:36.159Z,19.6
2018-12-11T07:03:25.684Z,19.6
2018-12-11T07:04:15.800Z,19.6
2018-12-11T07:05:05.755Z,19.6
2018-12-11T07:05:56.208Z,19.6
2018-12-11T07:06:46.193Z,19.6
2018-12-11T07:07:36.226Z,19.6
2018-12-11T07:08:25.976Z,19.6
2018-12-11T07:09:16.020Z,19.6
2018-12-11T07:10:06.451Z,19.6
2018-12-11T07:10:56.445Z,19.5
2018-12-11T07:11:46.316Z,19.6
2018-12-11T07:12:36.280Z,19.6
2018-12-11T07:13:26.595Z,19.6
2018-12-11T07:14:16.375Z,19.5
2018-12-11T07:15:05.887Z,19.6
2018-12-11T07:15:56.205Z,19.5
2018-12-11T07:16:46.775Z,19.6
2018-12-11T07:17:36.604Z,19.6
2018-12-11T07:18:29.822Z,19.5
2018-12-11T07:19:16.722Z,19.5
2018-12-11T07:20:06.511Z,19.6
2018-12-11T07:20:56.867Z,19.5
2018-12-11T07:21:46.889Z,19.5
2018-12-11T07:22:37.207Z,19.5
2018-12-11T07:23:26.727Z,19.5
2018-12-11T07:24:17.080Z,19.5
2018-12-11T07:25:07.401Z,19.5
2018-12-11T07:25:56.966Z,19.5
2018-12-11T07:26:47.246Z,19.5
2018-12-11T07:27:37.584Z,19.5
2018-12-11T07:28:27.044Z,19.5
2018-12-11T07:29:17.669Z,19.5
2018-12-11T07:30:07.741Z,19.5
2018-12-11T07:30:57.521Z,19.5
2018-12-11T07:31:47.578Z,19.5
2018-12-11T07:32:37.650Z,19.5
2018-12-11T07:33:27.930Z,19.4
2018-12-11T07:34:17.003Z,19.5
2018-12-11T07:35:08.133Z,19.5
2018-12-11T07:35:57.876Z,19.5
2018-12-11T07:36:48.193Z,19.5
2018-12-11T07:37:37.978Z,19.4
2018-12-11T07:38:28.040Z,19.4
2018-12-11T07:39:18.345Z,19.4
2018-12-11T07:40:07.881Z,19.4
2018-12-11T07:40:57.732Z,19.4
2018-12-11T07:41:48.258Z,19.4
2018-12-11T07:42:38.595Z,19.4
2018-12-11T07:43:28.426Z,19.4
2018-12-11T07:44:18.503Z,19.4
2018-12-11T07:45:08.779Z,19.4
2018-12-11T07:45:58.819Z,19.4
2018-12-11T07:46:48.602Z,19.4
2018-12-11T07:47:38.680Z,19.4
2018-12-11T07:48:28.729Z,19.4
2018-12-11T07:49:18.787Z,19.4
2018-12-11T07:50:08.544Z,19.4
2018-12-11T07:50:58.602Z,19.4
2018-12-11T07:51:49.237Z,19.4
2018-12-11T07:52:39.284Z,19.4
2018-12-11T07:53:29.071Z,19.4
2018-12-11T07:54:19.114Z,19.4
2018-12-11T07:55:09.196Z,19.4
2018-12-11T07:56:03.163Z,19.4
2018-12-11T07:56:49.301Z,19.4
2018-12-11T07:57:39.076Z,19.4
2018-12-11T07:58:29.122Z,19.4
2018-12-11T07:59:19.724Z,19.4
2018-12-11T08:00:09.336Z,19.4
2018-12-11T08:00:59.853Z,19.4
2018-12-11T08:01:49.916Z,19.4
2018-12-11T08:02:39.966Z,19.4
2018-12-11T08:03:30.036Z,19.4
2018-12-11T08:04:19.546Z,19.4
2018-12-11T08:05:09.443Z,19.4
2018-12-11T08:05:59.359Z,19.4
2018-12-11T08:06:50.006Z,19.4
2018-12-11T08:07:39.776Z,19.4
2018-12-11T08:08:30.370Z,19.4
2018-12-11T08:09:20.158Z,19.4
2018-12-11T08:10:10.491Z,19.3
2018-12-11T08:11:00.262Z,19.4
2018-12-11T08:11:50.617Z,19.3
2018-12-11T08:12:40.405Z,19.4
2018-12-11T08:13:30.157Z,19.4
2018-12-11T08:14:20.787Z,19.4
2018-12-11T08:15:12.360Z,19.4
2018-12-11T08:16:00.627Z,19.3
2018-12-11T08:16:50.948Z,19.3
2018-12-11T08:17:40.732Z,19.4
2018-12-11T08:18:30.845Z,19.3
2018-12-11T08:19:21.118Z,19.3
2018-12-11T08:20:10.920Z,19.3
2018-12-11T08:21:00.985Z,19.3
2018-12-11T08:21:51.298Z,19.3
2018-12-11T08:22:41.352Z,19.3
2018-12-11T08:23:31.141Z,19.3
2018-12-11T08:24:20.887Z,19.3
2018-12-11T08:25:11.579Z,19.3
2018-12-11T08:26:01.319Z,19.3
2018-12-11T08:26:51.371Z,19.3
2018-12-11T08:27:41.424Z,19.3
2018-12-11T08:28:30.921Z,19.3
2018-12-11T08:29:21.537Z,19.3
2018-12-11T08:30:11.849Z,19.3
2018-12-11T08:31:01.657Z,19.3
2018-12-11T08:31:51.706Z,19.3
2018-12-11T08:32:42.054Z,19.3
2018-12-11T08:33:32.101Z,19.3
2018-12-11T08:34:21.420Z,19.3
2018-12-11T08:35:12.456Z,19.3
2018-12-11T08:36:02.528Z,19.3
2018-12-11T08:36:52.106Z,19.3
2018-12-11T08:37:41.551Z,19.3
2018-12-11T08:38:32.452Z,19.3
2018-12-11T08:39:22.288Z,19.3
2018-12-11T08:40:12.281Z,19.3
2018-12-11T08:41:02.920Z,19.3
2018-12-11T08:41:52.391Z,19.3
2018-12-11T08:42:42.470Z,19.3
2018-12-11T08:43:32.578Z,19.3
2018-12-11T08:44:22.299Z,19.3
2018-12-11T08:45:12.625Z,19.3
2018-12-11T08:46:02.698Z,19.3
2018-12-11T08:46:52.761Z,19.3
2018-12-11T08:47:43.078Z,19.3
2018-12-11T08:48:33.145Z,19.3
2018-12-11T08:49:23.196Z,19.3
2018-12-11T08:50:12.490Z,19.3
2018-12-11T08:51:03.045Z,19.3
2018-12-11T08:51:53.445Z,19.3
2018-12-11T08:52:42.870Z,19.3
2018-12-11T09:08:32.527Z,19.2
2018-12-11T09:09:22.733Z,19.2
2018-12-11T09:10:13.676Z,18.6
2018-12-11T09:11:02.474Z,17.2
2018-12-11T09:11:51.910Z,24.8
2018-12-11T09:12:42.219Z,50.9
2018-12-11T09:13:47.899Z,61.6
2018-12-11T09:14:23.041Z,61.6
2018-12-11T09:15:12.874Z,61.4
2018-12-11T09:16:02.928Z,60.4
2018-12-11T09:16:52.782Z,58.8
2018-12-11T09:17:57.449Z,57.3
2018-12-11T09:18:33.551Z,55.9
2018-12-11T09:19:22.391Z,55.4
2018-12-11T09:20:27.660Z,54.3
2018-12-11T09:21:03.009Z,53.4
2018-12-11T09:21:53.361Z,52.8
2018-12-11T09:23:47.391Z,50.8
2018-12-11T09:24:23.316Z,50
2018-12-11T09:25:27.943Z,49.5
2018-12-11T09:26:17.791Z,48.3
2018-12-11T09:26:53.479Z,47.8
2018-12-11T09:27:43.656Z,47.3
2018-12-11T09:28:33.348Z,46.6
2018-12-11T14:07:25.317Z,21.5
2018-12-11T14:08:15.004Z,21.5
2018-12-11T14:09:04.872Z,21.4
2018-12-11T14:09:55.377Z,21.4
2018-12-11T14:10:44.834Z,21.4
2018-12-11T14:11:34.903Z,21.4
2018-12-11T14:12:25.209Z,21.4
2018-12-11T14:13:15.293Z,21.4
2018-12-11T14:14:05.069Z,21.4
2018-12-11T14:14:55.107Z,21.4
2018-12-11T14:15:44.897Z,21.4
2018-12-11T14:16:34.969Z,21.3
2018-12-11T14:17:25.611Z,21.3
2018-12-11T14:18:15.709Z,21.3
2018-12-11T14:19:05.674Z,21.3
2018-12-11T14:19:55.471Z,21.3
2018-12-11T14:20:45.798Z,21.3
2018-12-11T14:21:35.596Z,21.3
2018-12-11T14:22:25.901Z,21.3
2018-12-11T14:23:15.701Z,21.2
2018-12-11T14:24:05.762Z,21.2
2018-12-11T14:24:56.086Z,21.2
2018-12-11T14:25:45.594Z,21.2
2018-12-11T14:26:36.273Z,21.2
2018-12-11T14:31:36.000Z,21.1
2018-12-11T14:32:26.063Z,21.1
2018-12-11T14:33:16.376Z,21.1
2018-12-11T14:34:06.272Z,21.1
2018-12-11T14:34:56.045Z,21
2018-12-11T14:35:45.912Z,21
2018-12-11T14:36:36.157Z,21
2018-12-11T14:37:26.497Z,20.9
2018-12-11T14:38:16.005Z,21
2018-12-11T14:39:06.335Z,20.9
2018-12-11T14:39:56.655Z,20.9
2018-12-11T14:40:46.735Z,20.9
2018-12-11T14:41:36.794Z,20.9
2018-12-11T14:42:27.325Z,20.9
2018-12-11T14:43:16.964Z,20.9
2018-12-11T14:44:06.406Z,20.9
2018-12-11T14:44:56.947Z,20.9
2018-12-11T14:45:46.715Z,20.8
2018-12-11T14:46:36.869Z,20.8
2018-12-11T14:47:27.125Z,20.8
2018-12-11T14:48:17.726Z,20.8
2018-12-11T14:49:06.967Z,20.8
2018-12-11T14:49:57.289Z,20.8
2018-12-11T14:50:47.685Z,20.8
2018-12-11T14:51:37.136Z,20.8
2018-12-11T14:52:27.749Z,20.8
2018-12-11T14:53:17.879Z,20.8
2018-12-11T14:54:08.201Z,20.8
2018-12-11T14:54:57.913Z,20.8
2018-12-11T14:55:47.689Z,20.8
2018-12-11T14:56:37.201Z,20.8
2018-12-11T14:57:34.534Z,20.7
2018-12-11T14:58:18.146Z,20.7
2018-12-11T14:59:07.398Z,20.7
2018-12-11T14:59:58.549Z,20.6
2018-12-11T15:00:47.841Z,20.7
2018-12-11T15:01:38.676Z,20.7
2018-12-11T15:02:30.097Z,20.6
2018-12-11T15:03:18.213Z,20.6
2018-12-11T15:04:08.545Z,20.6
2018-12-11T15:04:57.804Z,20.6
2018-12-11T15:05:48.683Z,20.6
2018-12-11T15:06:39.003Z,20.6
2018-12-11T15:07:28.788Z,20.6
2018-12-11T15:08:19.086Z,20.6
2018-12-11T15:09:08.909Z,20.6
2018-12-11T15:09:58.991Z,20.6
2018-12-11T15:10:49.035Z,20.6
2018-12-11T15:11:39.352Z,20.6
2018-12-11T15:12:29.215Z,20.6
2018-12-11T15:13:19.190Z,20.5
2018-12-11T15:14:09.501Z,20.5
2018-12-11T15:14:59.309Z,20.5
2018-12-11T15:15:49.640Z,20.5
2018-12-11T15:16:39.943Z,20.5
2018-12-11T15:17:29.214Z,20.5
2018-12-11T15:18:19.548Z,20.5
2018-12-11T15:19:09.577Z,20.5
2018-12-11T15:19:59.930Z,20.4
2018-12-11T15:20:49.164Z,20.5
2018-12-11T15:21:40.099Z,20.4
2018-12-11T15:22:30.100Z,20.4
2018-12-11T15:23:20.176Z,20.4
2018-12-11T15:24:10.279Z,20.4
2018-12-11T15:25:00.284Z,20.4
2018-12-11T15:25:50.342Z,20.4
2018-12-11T15:26:40.119Z,20.4
2018-12-11T15:27:29.897Z,20.4
2018-12-11T15:28:19.962Z,20.4
2018-12-11T15:29:10.572Z,20.4
2018-12-11T15:30:00.667Z,20.4
2018-12-11T15:30:50.128Z,20.3
2018-12-11T15:31:40.571Z,20.4
2018-12-11T15:32:30.870Z,20.3
2018-12-11T15:33:20.899Z,20.3
2018-12-11T15:34:10.371Z,20.3
2018-12-11T15:35:00.758Z,20.3
2018-12-11T15:35:50.815Z,20.3
2018-12-11T15:36:40.812Z,20.3
2018-12-11T15:37:30.602Z,20.3
2018-12-11T15:38:20.908Z,20.3
2018-12-11T15:39:10.968Z,20.3
2018-12-11T15:40:01.072Z,20.3
2018-12-11T15:40:51.393Z,20.3
2018-12-11T15:41:41.457Z,20.3
2018-12-11T15:42:31.494Z,20.3
2018-12-11T15:43:21.002Z,20.3
2018-12-11T15:44:11.344Z,20.3
2018-12-11T15:45:01.719Z,20.3
2018-12-11T15:45:51.460Z,20.3
2018-12-11T15:46:41.527Z,20.2
2018-12-11T15:47:31.857Z,20.2
2018-12-11T15:48:21.905Z,20.2
2018-12-11T15:49:12.149Z,20.2
2018-12-11T15:50:02.172Z,20.2
2018-12-11T15:50:51.805Z,20.2
2018-12-11T15:51:41.589Z,20.2
2018-12-11T15:52:31.899Z,20.2
2018-12-11T15:53:22.262Z,20.1
2018-12-11T15:54:12.564Z,20.1
2018-12-11T15:55:02.364Z,20.2
2018-12-11T15:55:52.427Z,20.1
2018-12-11T15:56:42.211Z,20.2
2018-12-11T15:57:32.291Z,20.1
2018-12-11T15:58:27.894Z,20.1
2018-12-11T15:59:12.671Z,20.1
2018-12-11T16:00:01.895Z,20.1
2018-12-11T16:00:52.778Z,20.1
2018-12-11T16:01:42.300Z,20.1
2018-12-11T16:02:32.676Z,20.1
2018-12-11T16:03:22.679Z,20.1
2018-12-11T16:04:13.016Z,20.1
2018-12-11T16:05:02.278Z,20.1
2018-12-11T16:05:52.854Z,20.1
2018-12-11T16:06:43.179Z,20.1
2018-12-11T16:07:32.979Z,20.1
2018-12-11T16:08:23.315Z,20.1
2018-12-11T16:09:13.346Z,20.1
2018-12-11T16:10:02.871Z,20.1
2018-12-11T16:10:53.185Z,20.1
2018-12-11T16:11:43.255Z,20
2018-12-11T16:12:33.053Z,20
2018-12-11T16:13:23.710Z,20.1
2018-12-11T16:14:13.970Z,20.1
2018-12-11T16:15:03.890Z,20
2018-12-11T16:15:53.539Z,20
2018-12-11T16:16:43.878Z,20
2018-12-11T16:17:33.677Z,20
2018-12-11T16:18:23.734Z,20
2018-12-11T16:19:13.565Z,20
2018-12-11T16:20:03.862Z,19.9
2018-12-11T16:20:54.239Z,20
2018-12-11T16:21:43.950Z,19.9
2018-12-11T16:22:33.460Z,20
2018-12-11T16:23:24.080Z,19.9
2018-12-11T16:24:14.420Z,19.9
2018-12-11T16:25:04.202Z,19.9
2018-12-11T16:25:54.026Z,19.9
2018-12-11T16:26:44.582Z,19.9
2018-12-11T16:27:34.352Z,19.9
2018-12-11T16:28:24.427Z,19.9
2018-12-11T16:29:14.760Z,19.9
2018-12-11T16:30:04.277Z,19.9
2018-12-11T16:30:54.711Z,19.9
2018-12-11T16:31:44.952Z,19.9
2018-12-11T16:32:34.992Z,19.9
2018-12-11T16:33:25.037Z,19.9
2018-12-11T16:34:14.367Z,19.9
2018-12-11T16:35:04.749Z,19.9
2018-12-11T16:35:54.474Z,19.9
2018-12-11T16:36:45.282Z,19.9
2018-12-11T16:37:34.875Z,19.9
2018-12-11T16:38:25.390Z,19.9
2018-12-11T16:39:14.971Z,19.9
2018-12-11T16:40:07.201Z,19.9
2018-12-11T16:40:54.849Z,19.9
2018-12-11T16:41:45.399Z,19.9
2018-12-11T16:42:35.684Z,19.9
2018-12-11T16:43:25.194Z,19.8
2018-12-11T16:44:15.252Z,19.9
2018-12-11T16:45:05.861Z,19.9
2018-12-11T16:45:55.916Z,19.8
2018-12-11T16:46:45.978Z,19.9
2018-12-11T16:47:35.763Z,19.8
2018-12-11T16:48:26.088Z,19.8
2018-12-11T16:49:15.901Z,19.8
2018-12-11T16:50:06.228Z,19.8
2018-12-11T16:50:56.049Z,19.8
2018-12-11T16:51:46.386Z,19.8
2018-12-11T16:52:36.388Z,19.8
2018-12-11T16:53:26.448Z,19.8
2018-12-11T16:54:16.500Z,19.8
2018-12-11T16:55:06.563Z,19.8
2018-12-11T16:55:56.584Z,19.8
2018-12-11T16:56:46.373Z,19.8
2018-12-11T16:57:36.491Z,19.8
2018-12-11T16:58:26.793Z,19.8
2018-12-11T16:59:16.578Z,19.8
2018-12-11T17:00:06.353Z,19.8
2018-12-11T17:00:56.973Z,19.8
2018-12-11T17:01:47.031Z,19.8
2018-12-11T17:02:36.810Z,19.8
2018-12-11T17:03:26.858Z,19.8
2018-12-11T17:04:17.198Z,19.8
2018-12-11T17:05:07.253Z,19.8
2018-12-11T17:05:57.090Z,19.7
2018-12-11T17:06:47.150Z,19.8
2018-12-11T17:07:37.450Z,19.7
2018-12-11T17:08:27.485Z,19.7
2018-12-11T17:09:17.280Z,19.8
2018-12-11T17:10:07.613Z,19.7
2018-12-11T17:10:58.346Z,19.7
2018-12-11T17:11:47.448Z,19.7
2018-12-11T17:12:37.790Z,19.7
2018-12-11T17:13:27.884Z,19.7
2018-12-11T17:14:17.627Z,19.7
2018-12-11T17:15:07.400Z,19.6
2018-12-11T17:15:57.730Z,19.6
2018-12-11T17:16:47.790Z,19.7
2018-12-11T17:17:37.868Z,19.6
2018-12-11T17:18:28.180Z,19.6
2018-12-11T17:19:17.962Z,19.6
2018-12-11T17:20:08.038Z,19.6
2018-12-11T17:20:58.090Z,19.6
2018-12-11T17:21:50.579Z,19.6
2018-12-11T17:22:38.215Z,19.6
2018-12-11T17:23:28.265Z,19.6
2018-12-11T17:24:17.745Z,19.6
2018-12-11T17:25:08.682Z,19.6
2018-12-11T17:25:58.405Z,19.6
2018-12-11T17:26:49.979Z,19.6
2018-12-11T17:27:38.845Z,19.6
2018-12-11T17:28:28.878Z,19.6
2018-12-11T17:29:25.635Z,19.6
2018-12-11T17:30:08.719Z,19.6
2018-12-11T17:30:58.795Z,19.6
2018-12-11T17:31:48.842Z,19.6
2018-12-11T17:32:39.212Z,19.6
2018-12-11T17:33:29.282Z,19.6
2018-12-11T17:34:19.017Z,19.6
2018-12-11T17:35:09.339Z,19.6
2018-12-11T17:35:59.148Z,19.6
2018-12-11T17:36:49.457Z,19.6
2018-12-11T17:37:39.238Z,19.6
2018-12-11T17:38:29.573Z,19.5
2018-12-11T17:39:19.344Z,19.6
2018-12-11T17:40:09.137Z,19.5
2018-12-11T17:40:59.195Z,19.5
2018-12-11T17:41:49.852Z,19.5
2018-12-11T17:42:40.095Z,19.5
2018-12-11T17:43:29.971Z,19.5
2018-12-11T17:44:20.246Z,19.5
2018-12-11T17:45:10.031Z,19.5
2018-12-11T17:46:00.094Z,19.5
2018-12-11T17:46:50.152Z,19.5
2018-12-11T17:47:40.209Z,19.5
2018-12-11T17:48:30.317Z,19.5
2018-12-11T17:49:20.306Z,19.5
2018-12-11T17:50:10.114Z,19.5
2018-12-11T17:51:00.492Z,19.5
2018-12-11T17:51:49.739Z,19.5
2018-12-11T17:52:41.644Z,19.5
2018-12-11T17:53:29.586Z,19.5
2018-12-11T17:54:20.188Z,19.5
2018-12-11T17:55:10.238Z,19.5
2018-12-11T17:56:00.021Z,19.5
2018-12-11T17:56:50.371Z,19.5
2018-12-11T17:57:40.448Z,19.4
2018-12-11T17:58:30.519Z,19.5
2018-12-11T17:59:20.321Z,19.4
2018-12-11T18:00:10.622Z,19.5
2018-12-11T18:01:00.636Z,19.5
2018-12-11T18:01:50.432Z,19.5
2018-12-11T18:02:40.768Z,19.5
2018-12-11T18:03:30.820Z,19.4
2018-12-11T18:04:20.597Z,19.4
2018-12-11T18:05:11.140Z,19.5
2018-12-11T18:23:49.085Z,19.4
2018-12-11T18:24:38.812Z,19.4
2018-12-11T18:25:29.200Z,19.4
2018-12-11T18:26:18.944Z,19.4
2018-12-11T18:27:08.977Z,19.4
2018-12-11T18:27:59.052Z,19.4
2018-12-11T18:28:49.144Z,19.4
2018-12-11T18:29:39.437Z,19.4
2018-12-11T18:30:29.197Z,19.4
2018-12-11T18:31:19.309Z,19.4
2018-12-11T18:32:09.589Z,19.4
2018-12-11T18:32:59.656Z,19.4
2018-12-11T18:33:49.702Z,19.4
2018-12-11T18:34:39.479Z,19.4
2018-12-11T18:35:29.902Z,19.4
2018-12-11T18:36:19.598Z,19.4
2018-12-11T18:37:09.933Z,19.4
2018-12-11T18:37:59.991Z,19.4
2018-12-11T18:38:49.776Z,19.4
2018-12-11T18:39:40.363Z,19.4
2018-12-11T18:40:30.463Z,19.4
2018-12-11T18:41:20.354Z,19.4
2018-12-11T18:42:10.295Z,19.4
2018-12-11T18:43:00.071Z,19.4
2018-12-11T18:43:50.403Z,19.4
2018-12-11T18:44:40.453Z,19.4
2018-12-11T18:45:30.494Z,19.4
2018-12-11T18:46:20.299Z,19.4
2018-12-11T18:47:10.356Z,19.4
2018-12-11T18:48:00.681Z,19.4
2018-12-11T18:48:50.789Z,19.4
2018-12-11T18:49:40.828Z,19.4
2018-12-11T18:50:31.121Z,19.4
2018-12-11T18:51:20.656Z,19.4
2018-12-11T18:52:10.980Z,19.4
2018-12-11T18:53:00.761Z,19.4
2018-12-11T18:53:51.089Z,19.4
2018-12-11T18:54:41.165Z,19.4
2018-12-11T18:55:30.668Z,19.4
2018-12-11T18:56:20.989Z,19.4
2018-12-11T18:57:11.321Z,19.4
2018-12-11T18:58:01.165Z,19.4
2018-12-11T18:58:50.903Z,19.4
2018-12-11T18:59:41.504Z,19.4
2018-12-11T19:00:31.347Z,19.4
2018-12-11T19:01:21.620Z,19.4
2018-12-11T19:02:11.399Z,19.4
2018-12-11T19:03:01.794Z,19.4
2018-12-11T19:03:52.836Z,19.4
2018-12-11T19:04:41.016Z,19.4
2018-12-11T19:05:32.124Z,19.4
2018-12-11T19:06:21.690Z,19.4
2018-12-11T19:07:12.014Z,19.4
2018-12-11T19:08:01.797Z,19.4
2018-12-11T19:08:51.859Z,19.4
2018-12-11T19:09:42.204Z,19.4
2018-12-11T19:10:32.027Z,19.4
2018-12-11T19:11:22.069Z,19.4
2018-12-11T19:12:12.392Z,19.4
2018-12-11T19:13:01.865Z,19.4
2018-12-11T19:13:52.486Z,19.4
2018-12-11T19:14:42.320Z,19.4
2018-12-11T19:15:32.039Z,19.4
2018-12-11T19:16:22.392Z,19.4
2018-12-11T19:17:12.726Z,19.4
2018-12-11T19:18:02.497Z,19.4
2018-12-11T19:18:52.881Z,19.4
2018-12-11T19:19:42.894Z,19.4
2018-12-11T19:20:32.961Z,19.4
2018-12-11T19:21:22.719Z,19.4
2018-12-11T19:22:13.069Z,19.4
2018-12-11T19:23:02.854Z,19.4
2018-12-11T19:23:52.903Z,19.4
2018-12-11T19:24:43.233Z,19.4
2018-12-11T19:25:33.019Z,19.3
2018-12-11T19:26:24.590Z,19.4
2018-12-11T19:27:13.115Z,19.4
2018-12-11T19:28:03.445Z,19.4
2018-12-11T19:28:53.215Z,19.4
2018-12-11T19:29:43.600Z,19.3
2018-12-11T19:30:33.668Z,19.4
2018-12-11T19:31:23.425Z,19.4
2018-12-11T19:32:13.502Z,19.4
2018-12-11T19:33:03.540Z,19.4
2018-12-11T19:33:53.588Z,19.4
2018-12-11T19:34:43.651Z,19.4
2018-12-11T19:35:36.338Z,19.4
2018-12-11T19:36:24.067Z,19.4
2018-12-11T19:37:13.539Z,19.3
2018-12-11T19:38:03.897Z,19.3
2018-12-11T19:38:53.931Z,19.3
2018-12-11T19:39:43.987Z,19.3
2018-12-11T19:40:40.406Z,19.3
2018-12-11T19:41:24.380Z,19.3
2018-12-11T19:42:14.277Z,19.3
2018-12-11T19:43:10.479Z,19.4
2018-12-11T19:43:54.554Z,19.3
2018-12-11T19:44:44.331Z,19.3
2018-12-11T19:45:34.731Z,19.3
2018-12-11T19:46:25.037Z,19.3
2018-12-11T19:47:14.491Z,19.3
2018-12-11T19:48:04.849Z,19.3
2018-12-11T19:48:54.621Z,19.3
2018-12-11T19:49:44.943Z,19.3
2018-12-11T19:50:35.016Z,19.3
2018-12-11T19:51:25.039Z,19.3
2018-12-11T19:52:14.571Z,19.3
2018-12-11T19:53:04.631Z,19.3
2018-12-11T19:53:55.221Z,19.3
2018-12-11T19:54:45.031Z,19.3
2018-12-11T19:55:35.441Z,19.3
2018-12-11T19:56:25.678Z,19.3
2018-12-11T19:57:15.198Z,19.3
2018-12-11T19:58:04.985Z,19.3
2018-12-11T19:58:55.025Z,19.3
2018-12-11T19:59:45.378Z,19.3
2018-12-11T20:00:35.955Z,19.3
2018-12-11T20:01:25.757Z,19.3
2018-12-11T20:02:15.547Z,19.3
2018-12-11T20:03:11.560Z,19.3
2018-12-11T20:03:55.677Z,19.3
2018-12-11T20:04:45.987Z,19.3
2018-12-11T20:05:35.773Z,19.3
2018-12-11T20:06:25.062Z,19.3
2018-12-11T20:07:16.174Z,19.3
2018-12-11T20:08:05.655Z,19.3
2018-12-11T20:08:55.734Z,19.3
2018-12-11T20:09:46.057Z,19.3
2018-12-11T20:10:36.404Z,19.3
2018-12-11T20:11:25.912Z,19.3
2018-12-11T20:12:16.239Z,19.3
2018-12-11T20:13:06.381Z,19.3
2018-12-11T20:13:56.631Z,19.3
2018-12-11T20:14:46.125Z,19.3
2018-12-11T20:15:37.089Z,19.3
2018-12-11T20:16:26.543Z,19.3
2018-12-11T20:17:16.859Z,19.3
2018-12-11T20:18:13.329Z,19.3
2018-12-11T20:18:56.976Z,19.2
2018-12-11T20:19:46.751Z,19.3
2018-12-11T20:20:36.866Z,19.2
2018-12-11T20:21:26.636Z,19.3
2018-12-11T20:22:16.641Z,19.3
2018-12-11T20:23:06.975Z,19.2
2018-12-11T20:23:57.053Z,19.2
2018-12-11T20:24:47.393Z,19.3
2018-12-11T20:25:37.425Z,19.2
2018-12-11T20:26:27.516Z,19.3
2018-12-11T20:27:17.255Z,19.2
2018-12-11T20:28:07.330Z,19.2
2018-12-11T20:28:57.372Z,19.2
2018-12-11T20:29:47.982Z,19.2
2018-12-11T20:30:37.495Z,19.2
2018-12-11T20:31:27.820Z,19.2
2018-12-11T20:32:17.628Z,19.2
2018-12-11T20:33:07.671Z,19.2
2018-12-11T20:33:57.720Z,19.2
2018-12-11T20:34:47.037Z,19.2
2018-12-11T20:35:37.566Z,19.2
2018-12-11T20:36:27.067Z,19.2
2018-12-11T20:37:17.922Z,19.2
2018-12-11T20:38:07.460Z,19.2
2018-12-11T20:38:57.579Z,19.2
2018-12-11T20:39:47.908Z,19.2
2018-12-11T20:40:38.507Z,19.2
2018-12-11T20:41:28.507Z,19.2
2018-12-11T20:42:18.281Z,19.2
2018-12-11T20:43:08.626Z,19.2
2018-12-11T20:43:58.401Z,19.1
2018-12-11T20:44:48.516Z,19.2
2018-12-11T20:45:38.531Z,19.1
2018-12-11T20:46:28.041Z,19.1
2018-12-11T20:47:18.924Z,19.1
2018-12-11T20:48:08.697Z,19.1
2018-12-11T20:48:58.746Z,19.1
2018-12-11T20:49:48.888Z,19.1
2018-12-11T20:50:38.880Z,19.1
2018-12-11T20:51:28.651Z,19.1
2018-12-11T20:52:18.507Z,19.1
2018-12-11T20:53:08.869Z,19.1
2018-12-11T20:53:58.640Z,19.1
2018-12-11T20:54:49.484Z,19.1
2018-12-11T20:55:39.496Z,19.1
2018-12-11T20:56:29.325Z,19.1
2018-12-11T20:57:19.206Z,19.1
2018-12-11T20:58:09.380Z,19.1
2018-12-11T20:58:59.520Z,19.1
2018-12-11T20:59:48.945Z,19.1
2018-12-11T21:00:39.550Z,19.1
2018-12-11T21:01:29.605Z,19.1
2018-12-11T21:02:20.215Z,19.1